createdAt,value
2023-02-14T00:00:48.503Z,2.71
2023-02-14T00:03:16.309Z,2.67
2023-02-14T00:05:44.133Z,2.72
2023-02-14T00:08:11.957Z,2.58
2023-02-14T00:10:39.755Z,2.61
2023-02-14T00:13:07.725Z,2.80
2023-02-14T00:15:35.472Z,2.75
2023-02-14T00:18:04.456Z,2.80
2023-02-14T00:20:32.269Z,2.70
2023-02-14T00:23:01.830Z,2.53
2023-02-14T00:25:29.594Z,2.70
2023-02-14T00:27:57.387Z,2.83
2023-02-14T00:30:27.480Z,2.91
2023-02-14T00:32:55.261Z,2.67
2023-02-14T00:35:23.046Z,2.48
2023-02-14T00:37:50.826Z,2.75
2023-02-14T00:40:18.643Z,2.68
2023-02-14T00:42:46.410Z,2.67
2023-02-14T00:45:14.245Z,2.68
2023-02-14T00:47:41.997Z,2.77
2023-02-14T00:50:09.805Z,2.49
2023-02-14T00:52:37.627Z,2.65
2023-02-14T00:55:05.386Z,2.74
2023-02-14T00:57:33.165Z,2.75
2023-02-14T01:00:00.947Z,2.74
2023-02-14T01:02:28.742Z,2.72
2023-02-14T01:04:56.541Z,2.81
2023-02-14T01:07:24.314Z,2.70
2023-02-14T01:09:52.097Z,2.69
2023-02-14T01:12:19.842Z,2.84
2023-02-14T01:14:47.641Z,2.86
2023-02-14T01:17:15.418Z,2.86
2023-02-14T01:19:43.518Z,2.85
2023-02-14T01:22:11.315Z,2.47
2023-02-14T01:24:39.126Z,2.77
2023-02-14T01:27:06.853Z,2.82
2023-02-14T01:29:34.608Z,2.89
2023-02-14T01:32:02.368Z,2.80
2023-02-14T01:34:30.152Z,2.76
2023-02-14T01:36:58.086Z,2.78
2023-02-14T01:39:25.875Z,2.92
2023-02-14T01:41:55.620Z,2.91
2023-02-14T01:44:23.467Z,2.86
2023-02-14T01:46:54.291Z,3.01
2023-02-14T01:49:22.072Z,2.98
2023-02-14T01:51:49.822Z,2.83
2023-02-14T01:54:17.655Z,2.91
2023-02-14T01:56:48.384Z,2.88
2023-02-14T01:59:16.186Z,3.06
2023-02-14T02:01:43.989Z,2.65
2023-02-14T02:04:11.736Z,2.71
2023-02-14T02:06:39.475Z,2.74
2023-02-14T02:09:07.560Z,2.99
2023-02-14T02:11:35.329Z,2.88
2023-02-14T02:14:03.135Z,2.78
2023-02-14T02:16:30.898Z,2.63
2023-02-14T02:18:58.697Z,2.71
2023-02-14T02:21:26.541Z,2.83
2023-02-14T02:23:54.327Z,2.80
2023-02-14T02:26:22.129Z,2.87
2023-02-14T02:28:49.894Z,2.81
2023-02-14T02:31:17.738Z,3.01
2023-02-14T02:33:45.585Z,2.64
2023-02-14T02:36:13.395Z,2.78
2023-02-14T02:38:42.776Z,2.75
2023-02-14T02:41:10.517Z,2.98
2023-02-14T02:43:38.283Z,2.87
2023-02-14T02:46:24.756Z,2.95
2023-02-14T02:48:52.753Z,2.90
2023-02-14T02:51:39.032Z,2.94
2023-02-14T02:54:06.813Z,2.88
2023-02-14T02:56:49.509Z,2.99
2023-02-14T02:59:25.539Z,2.69
2023-02-14T03:01:53.370Z,3.02
2023-02-14T03:04:39.729Z,3.07
2023-02-14T03:07:27.292Z,2.96
2023-02-14T03:09:55.174Z,3.22
2023-02-14T03:12:22.953Z,2.97
2023-02-14T03:14:50.718Z,3.22
2023-02-14T03:17:18.506Z,3.23
2023-02-14T03:20:04.433Z,3.21
2023-02-14T03:22:32.279Z,3.31
2023-02-14T03:25:00.019Z,3.41
2023-02-14T03:27:27.796Z,3.29
2023-02-14T03:29:55.699Z,3.48
2023-02-14T03:32:23.472Z,3.28
2023-02-14T03:34:51.296Z,3.55
2023-02-14T03:37:19.065Z,3.98
2023-02-14T03:39:46.824Z,3.93
2023-02-14T03:42:14.584Z,3.83
2023-02-14T03:44:42.421Z,3.72
2023-02-14T03:47:10.203Z,3.99
2023-02-14T03:49:37.975Z,3.94
2023-02-14T03:52:05.725Z,3.82
2023-02-14T03:54:33.861Z,3.90
2023-02-14T03:57:01.611Z,4.13
2023-02-14T03:59:29.413Z,3.89
2023-02-14T04:01:57.258Z,4.08
2023-02-14T04:04:25.091Z,3.97
2023-02-14T04:06:52.873Z,3.91
2023-02-14T04:09:20.629Z,3.91
2023-02-14T04:11:51.281Z,3.99
2023-02-14T04:14:19.097Z,4.05
2023-02-14T04:17:08.182Z,3.84
2023-02-14T04:19:36.094Z,4.09
2023-02-14T04:22:03.858Z,4.17
2023-02-14T04:24:31.610Z,4.00
2023-02-14T04:27:11.605Z,4.28
2023-02-14T04:29:39.769Z,4.28
2023-02-14T04:32:07.574Z,4.44
2023-02-14T04:34:35.449Z,4.16
2023-02-14T04:37:03.460Z,4.49
2023-02-14T04:39:31.227Z,4.15
2023-02-14T04:41:59.004Z,4.26
2023-02-14T04:44:26.842Z,4.31
2023-02-14T04:46:54.681Z,4.19
2023-02-14T04:49:24.792Z,4.36
2023-02-14T04:51:52.542Z,4.09
2023-02-14T04:54:20.295Z,9.08
2023-02-14T04:56:48.079Z,5.15
2023-02-14T04:59:15.975Z,4.69
2023-02-14T05:01:43.753Z,4.72
2023-02-14T05:04:11.627Z,4.87
2023-02-14T05:06:39.399Z,4.65
2023-02-14T05:09:09.359Z,6.19
2023-02-14T05:11:37.163Z,5.59
2023-02-14T05:14:04.937Z,5.72
2023-02-14T05:16:32.752Z,5.83
2023-02-14T05:19:00.830Z,5.77
2023-02-14T05:21:29.546Z,5.69
2023-02-14T05:23:57.306Z,5.77
2023-02-14T05:26:25.747Z,5.50
2023-02-14T05:28:53.599Z,5.75
2023-02-14T05:31:21.515Z,6.05
2023-02-14T05:33:49.474Z,5.58
2023-02-14T05:36:17.314Z,5.64
2023-02-14T05:38:45.114Z,5.78
2023-02-14T05:41:12.882Z,5.48
2023-02-14T05:43:40.647Z,5.60
2023-02-14T05:46:08.492Z,5.25
2023-02-14T05:48:36.269Z,5.83
2023-02-14T05:51:04.032Z,5.44
2023-02-14T05:53:31.756Z,5.79
2023-02-14T05:55:59.619Z,5.75
2023-02-14T05:58:27.371Z,5.44
2023-02-14T06:00:55.145Z,5.66
2023-02-14T06:03:22.951Z,5.73
2023-02-14T06:05:50.720Z,5.59
2023-02-14T06:08:18.594Z,5.72
2023-02-14T06:10:46.454Z,5.61
2023-02-14T06:13:14.218Z,5.47
2023-02-14T06:15:42.015Z,5.73
2023-02-14T06:18:09.828Z,5.61
2023-02-14T06:20:37.845Z,5.86
2023-02-14T06:23:05.881Z,5.68
2023-02-14T06:25:33.714Z,5.82
2023-02-14T06:28:01.567Z,5.98
2023-02-14T06:30:29.485Z,5.51
2023-02-14T06:32:57.438Z,5.79
2023-02-14T06:35:25.206Z,5.75
2023-02-14T06:37:52.934Z,5.50
2023-02-14T06:40:20.865Z,5.72
2023-02-14T06:42:48.667Z,5.87
2023-02-14T06:45:16.485Z,5.75
2023-02-14T06:47:44.384Z,5.75
2023-02-14T06:50:12.724Z,5.78
2023-02-14T06:52:40.696Z,5.63
2023-02-14T06:55:08.837Z,5.79
2023-02-14T06:57:36.577Z,5.77
2023-02-14T07:00:04.336Z,6.02
2023-02-14T07:02:32.117Z,5.83
2023-02-14T07:04:59.900Z,6.04
2023-02-14T07:07:27.630Z,5.68
2023-02-14T07:09:55.418Z,5.70
2023-02-14T07:12:23.181Z,5.81
2023-02-14T07:14:50.934Z,5.91
2023-02-14T07:17:18.702Z,6.04
2023-02-14T07:19:46.441Z,5.90
2023-02-14T07:22:14.186Z,5.97
2023-02-14T07:24:41.957Z,5.90
2023-02-14T07:27:09.686Z,5.83
2023-02-14T07:29:38.398Z,6.05
2023-02-14T07:32:06.305Z,6.16
2023-02-14T07:34:34.225Z,5.97
2023-02-14T07:37:01.967Z,5.87
2023-02-14T07:39:29.760Z,6.04
2023-02-14T07:41:57.514Z,6.11
2023-02-14T07:44:25.310Z,5.91
2023-02-14T07:46:53.069Z,6.02
2023-02-14T07:49:20.873Z,5.99
2023-02-14T07:51:48.654Z,6.07
2023-02-14T07:54:16.430Z,5.78
2023-02-14T07:56:44.160Z,5.98
2023-02-14T07:59:11.901Z,6.27
2023-02-14T08:01:39.736Z,5.77
2023-02-14T08:04:07.631Z,6.14
2023-02-14T08:06:35.461Z,5.82
2023-02-14T08:09:03.326Z,5.77
2023-02-14T08:11:49.480Z,5.88
2023-02-14T08:14:17.347Z,5.98
2023-02-14T08:16:45.122Z,5.93
2023-02-14T08:19:12.883Z,5.69
2023-02-14T08:21:40.627Z,5.68
2023-02-14T08:24:08.382Z,5.95
2023-02-14T08:26:36.129Z,5.68
2023-02-14T08:29:03.878Z,5.94
2023-02-14T08:31:36.226Z,5.97
2023-02-14T08:34:04.544Z,5.97
2023-02-14T08:36:32.367Z,6.17
2023-02-14T08:39:00.159Z,6.06
2023-02-14T08:41:27.919Z,6.07
2023-02-14T08:43:55.766Z,5.81
2023-02-14T08:46:23.564Z,6.20
2023-02-14T08:48:51.466Z,6.34
2023-02-14T08:51:19.264Z,6.17
2023-02-14T08:53:47.325Z,6.13
2023-02-14T08:56:15.125Z,6.15
2023-02-14T08:58:43.253Z,6.12
2023-02-14T09:01:11.274Z,6.35
2023-02-14T09:03:39.172Z,6.33
2023-02-14T09:06:07.668Z,6.53
2023-02-14T09:08:38.288Z,6.41
2023-02-14T09:11:06.081Z,6.63
2023-02-14T09:13:33.857Z,6.42
2023-02-14T09:16:01.697Z,6.24
2023-02-14T09:18:29.538Z,6.52
2023-02-14T09:20:57.774Z,6.80
2023-02-14T09:23:25.758Z,6.68
2023-02-14T09:25:53.574Z,6.86
2023-02-14T09:28:21.360Z,6.75
2023-02-14T09:30:49.240Z,6.28
2023-02-14T09:33:17.056Z,6.40
2023-02-14T09:36:03.504Z,6.62
2023-02-14T09:38:31.312Z,6.62
2023-02-14T09:40:59.801Z,6.56
2023-02-14T09:43:31.698Z,6.92
2023-02-14T09:45:59.527Z,7.01
2023-02-14T09:48:28.274Z,7.01
2023-02-14T09:50:56.119Z,6.77
2023-02-14T09:53:23.877Z,6.77
2023-02-14T09:55:51.632Z,7.30
2023-02-14T09:58:20.141Z,6.50
2023-02-14T10:00:48.076Z,6.76
2023-02-14T10:03:15.888Z,7.01
2023-02-14T10:05:43.777Z,6.86
2023-02-14T10:08:11.603Z,7.01
2023-02-14T10:10:39.716Z,7.23
2023-02-14T10:13:07.679Z,6.75
2023-02-14T10:15:35.417Z,6.70
2023-02-14T10:18:03.347Z,6.33
2023-02-14T10:20:31.180Z,6.62
2023-02-14T10:22:58.976Z,6.75
2023-02-14T10:25:26.821Z,7.12
2023-02-14T10:27:54.574Z,6.84
2023-02-14T10:30:22.565Z,6.99
2023-02-14T10:32:50.442Z,6.64
2023-02-14T10:35:20.913Z,6.53
2023-02-14T10:37:49.310Z,6.65
2023-02-14T10:40:22.449Z,6.95
2023-02-14T10:42:50.423Z,6.58
2023-02-14T10:45:18.182Z,6.63
2023-02-14T10:47:47.871Z,6.50
2023-02-14T10:50:16.380Z,6.32
2023-02-14T10:52:44.160Z,6.61
2023-02-14T10:55:13.892Z,6.41
2023-02-14T10:57:43.425Z,6.53
2023-02-14T11:00:14.869Z,6.35
2023-02-14T11:02:42.628Z,6.43
2023-02-14T11:05:18.232Z,6.74
2023-02-14T11:07:45.986Z,6.27
2023-02-14T11:10:16.795Z,6.78
2023-02-14T11:13:04.308Z,6.67
2023-02-14T11:15:58.235Z,6.52
2023-02-14T11:18:46.350Z,6.53
2023-02-14T11:21:14.245Z,6.57
2023-02-14T11:23:42.855Z,6.55
2023-02-14T11:26:11.362Z,6.12
2023-02-14T11:28:47.887Z,6.29
2023-02-14T11:31:15.886Z,6.49
2023-02-14T11:33:43.691Z,6.24
2023-02-14T11:36:11.452Z,6.46
2023-02-14T11:38:42.111Z,6.31
2023-02-14T11:41:12.533Z,6.11
2023-02-14T11:43:40.853Z,6.50
2023-02-14T11:46:08.990Z,6.38
2023-02-14T11:48:39.011Z,6.19
2023-02-14T11:51:09.323Z,6.00
2023-02-14T11:53:37.192Z,6.01
2023-02-14T11:56:07.178Z,6.00
2023-02-14T11:58:34.941Z,6.00
2023-02-14T12:01:03.032Z,6.20
2023-02-14T12:03:32.365Z,5.76
2023-02-14T12:06:03.127Z,5.72
2023-02-14T12:08:30.909Z,6.10
2023-02-14T12:10:58.845Z,5.81
2023-02-14T12:13:27.172Z,6.05
2023-02-14T12:15:55.098Z,6.31
2023-02-14T12:18:23.055Z,6.14
2023-02-14T12:20:51.135Z,6.30
2023-02-14T12:23:18.942Z,5.84
2023-02-14T12:25:46.693Z,5.73
2023-02-14T12:28:14.527Z,5.80
2023-02-14T12:30:42.292Z,5.98
2023-02-14T12:33:10.060Z,5.80
2023-02-14T12:35:37.794Z,5.65
2023-02-14T12:38:05.550Z,5.86
2023-02-14T12:40:33.432Z,5.91
2023-02-14T12:43:01.297Z,5.79
2023-02-14T12:45:29.163Z,5.67
2023-02-14T12:47:56.940Z,5.81
2023-02-14T12:50:24.944Z,5.98
2023-02-14T12:52:52.700Z,5.84
2023-02-14T12:55:20.705Z,5.86
2023-02-14T12:57:48.500Z,5.89
2023-02-14T13:00:16.362Z,5.52
2023-02-14T13:02:44.252Z,5.69
2023-02-14T13:05:14.105Z,5.80
2023-02-14T13:07:41.865Z,5.65
2023-02-14T13:10:09.640Z,5.63
2023-02-14T13:12:37.611Z,5.68
2023-02-14T13:15:05.564Z,5.56
2023-02-14T13:17:35.991Z,5.50
2023-02-14T13:20:03.784Z,5.63
2023-02-14T13:22:32.036Z,5.40
2023-02-14T13:24:59.885Z,5.54
2023-02-14T13:27:27.833Z,5.53
2023-02-14T13:29:55.732Z,5.37
2023-02-14T13:32:23.541Z,5.54
2023-02-14T13:34:51.314Z,5.33
2023-02-14T13:37:19.126Z,5.35
2023-02-14T13:39:47.042Z,5.60
2023-02-14T13:42:15.425Z,5.30
2023-02-14T13:44:43.202Z,5.30
2023-02-14T13:47:10.961Z,5.39
2023-02-14T13:49:38.845Z,5.29
2023-02-14T13:52:06.661Z,5.19
2023-02-14T13:54:34.447Z,5.40
2023-02-14T13:57:02.463Z,5.42
2023-02-14T13:59:30.327Z,5.54
2023-02-14T14:01:58.254Z,5.40
2023-02-14T14:04:26.034Z,5.34
2023-02-14T14:06:53.763Z,5.32
2023-02-14T14:09:23.678Z,5.49
2023-02-14T14:11:52.096Z,5.25
2023-02-14T14:14:19.851Z,5.21
2023-02-14T14:16:47.641Z,5.23
2023-02-14T14:19:15.437Z,5.00
2023-02-14T14:21:44.954Z,5.45
2023-02-14T14:24:12.730Z,5.28
2023-02-14T14:26:40.757Z,5.23
2023-02-14T14:29:08.513Z,5.31
2023-02-14T14:31:36.371Z,5.06
2023-02-14T14:34:04.319Z,5.29
2023-02-14T14:36:32.126Z,5.28
2023-02-14T14:38:59.855Z,5.04
2023-02-14T14:41:27.903Z,4.95
2023-02-14T14:43:55.700Z,5.11
2023-02-14T14:46:23.472Z,5.20
2023-02-14T14:48:51.294Z,5.03
2023-02-14T14:51:21.073Z,4.86
2023-02-14T14:53:49.742Z,5.08
2023-02-14T14:56:17.490Z,5.36
2023-02-14T14:58:45.258Z,4.94
2023-02-14T15:01:14.098Z,5.03
2023-02-14T15:03:42.020Z,5.20
2023-02-14T15:06:09.837Z,5.09
2023-02-14T15:08:37.787Z,4.84
2023-02-14T15:11:07.188Z,5.00
2023-02-14T15:13:55.799Z,4.95
2023-02-14T15:16:23.622Z,4.58
2023-02-14T15:18:51.469Z,4.52
2023-02-14T15:21:19.279Z,4.69
2023-02-14T15:23:47.072Z,5.05
2023-02-14T15:26:14.831Z,4.93
2023-02-14T15:28:42.577Z,4.85
2023-02-14T15:31:10.570Z,4.85
2023-02-14T15:33:38.412Z,5.21
2023-02-14T15:36:06.159Z,4.81
2023-02-14T15:38:34.846Z,4.87
2023-02-14T15:41:02.843Z,5.14
2023-02-14T15:43:31.850Z,4.92
2023-02-14T15:45:59.682Z,4.62
2023-02-14T15:48:27.493Z,4.91
2023-02-14T15:50:55.254Z,4.71
2023-02-14T15:53:23.005Z,4.81
2023-02-14T15:55:53.814Z,4.94
2023-02-14T15:58:21.677Z,4.61
2023-02-14T16:00:49.453Z,4.66
2023-02-14T16:03:17.207Z,4.61
2023-02-14T16:05:44.955Z,4.59
2023-02-14T16:08:13.596Z,4.36
2023-02-14T16:10:41.411Z,4.53
2023-02-14T16:13:10.595Z,4.73
2023-02-14T16:15:38.685Z,4.58
2023-02-14T16:18:08.280Z,4.70
2023-02-14T16:20:36.188Z,4.48
2023-02-14T16:23:04.009Z,4.38
2023-02-14T16:25:31.885Z,4.60
2023-02-14T16:27:59.654Z,4.25
2023-02-14T16:30:27.434Z,4.69
2023-02-14T16:32:58.082Z,4.43
2023-02-14T16:35:25.861Z,4.67
2023-02-14T16:37:53.779Z,4.33
2023-02-14T16:40:21.494Z,4.88
2023-02-14T16:42:49.237Z,4.36
2023-02-14T16:45:17.393Z,4.38
2023-02-14T16:47:45.160Z,4.41
2023-02-14T16:50:13.323Z,4.37
2023-02-14T16:52:41.285Z,4.35
2023-02-14T16:55:09.032Z,4.52
2023-02-14T16:57:36.836Z,4.25
2023-02-14T17:00:04.712Z,4.40
2023-02-14T17:02:32.543Z,4.41
2023-02-14T17:05:00.444Z,4.50
2023-02-14T17:07:28.192Z,4.29
2023-02-14T17:09:55.980Z,4.34
2023-02-14T17:12:23.719Z,4.25
2023-02-14T17:14:51.842Z,4.21
2023-02-14T17:17:19.655Z,3.96
2023-02-14T17:19:47.510Z,3.98
2023-02-14T17:22:15.330Z,4.31
2023-02-14T17:24:45.933Z,4.14
2023-02-14T17:27:13.717Z,3.90
2023-02-14T17:29:41.489Z,3.97
2023-02-14T17:32:09.316Z,4.24
2023-02-14T17:34:37.418Z,4.19
2023-02-14T17:37:05.241Z,4.04
2023-02-14T17:39:33.087Z,4.04
2023-02-14T17:42:00.851Z,4.28
2023-02-14T17:44:30.621Z,4.15
2023-02-14T17:46:58.963Z,3.97
2023-02-14T17:49:26.776Z,3.96
2023-02-14T17:51:54.691Z,4.04
2023-02-14T17:54:22.451Z,4.00
2023-02-14T17:56:50.261Z,4.15
2023-02-14T17:59:18.093Z,3.93
2023-02-14T18:01:45.865Z,4.12
2023-02-14T18:04:13.774Z,4.10
2023-02-14T18:06:41.777Z,3.86
2023-02-14T18:09:09.541Z,4.17
2023-02-14T18:11:37.300Z,3.89
2023-02-14T18:14:05.560Z,3.96
2023-02-14T18:16:34.162Z,3.60
2023-02-14T18:19:02.035Z,4.01
2023-02-14T18:21:30.603Z,3.73
2023-02-14T18:24:00.687Z,3.83
2023-02-14T18:26:28.535Z,3.73
2023-02-14T18:28:56.401Z,3.82
2023-02-14T18:31:24.208Z,3.90
2023-02-14T18:33:52.165Z,4.04
2023-02-14T18:36:20.005Z,3.99
2023-02-14T18:38:47.830Z,3.83
2023-02-14T18:41:15.610Z,3.46
2023-02-14T18:43:43.485Z,3.72
2023-02-14T18:46:11.264Z,3.90
2023-02-14T18:48:39.037Z,3.81
2023-02-14T18:51:06.920Z,3.93
2023-02-14T18:53:34.688Z,3.76
2023-02-14T18:56:02.650Z,3.84
2023-02-14T18:58:30.434Z,3.79
2023-02-14T19:00:59.111Z,3.82
2023-02-14T19:03:27.080Z,3.83
2023-02-14T19:05:54.953Z,3.82
2023-02-14T19:08:22.704Z,3.83
2023-02-14T19:10:50.488Z,3.83
2023-02-14T19:13:20.528Z,3.58
2023-02-14T19:15:48.668Z,3.62
2023-02-14T19:18:16.516Z,3.67
2023-02-14T19:20:44.275Z,3.82
2023-02-14T19:23:12.058Z,3.77
2023-02-14T19:25:39.881Z,3.73
2023-02-14T19:28:12.410Z,3.81
2023-02-14T19:30:40.409Z,3.78
2023-02-14T19:33:08.181Z,3.80
2023-02-14T19:35:36.756Z,3.84
2023-02-14T19:38:04.607Z,3.88
2023-02-14T19:40:32.354Z,3.60
2023-02-14T19:43:00.137Z,3.78
2023-02-14T19:45:33.287Z,3.70
2023-02-14T19:48:02.642Z,3.69
2023-02-14T19:50:30.904Z,3.79
2023-02-14T19:52:59.601Z,3.63
2023-02-14T19:55:28.656Z,3.52
2023-02-14T19:57:56.760Z,3.77
2023-02-14T20:00:25.376Z,3.75
2023-02-14T20:02:53.171Z,3.82
2023-02-14T20:05:20.980Z,3.51
2023-02-14T20:07:55.405Z,3.57
2023-02-14T20:10:23.224Z,3.42
2023-02-14T20:12:51.092Z,3.67
2023-02-14T20:15:20.519Z,3.72
2023-02-14T20:17:48.308Z,3.66
2023-02-14T20:20:17.580Z,3.74
2023-02-14T20:22:45.590Z,3.69
2023-02-14T20:25:13.659Z,3.58
2023-02-14T20:27:41.467Z,3.41
2023-02-14T20:30:10.006Z,3.50
2023-02-14T20:32:38.202Z,3.64
2023-02-14T20:35:06.004Z,3.44
2023-02-14T20:37:33.780Z,3.47
2023-02-14T20:40:01.535Z,3.49
2023-02-14T20:42:29.288Z,3.42
2023-02-14T20:44:57.115Z,3.50
2023-02-14T20:47:24.938Z,3.47
2023-02-14T20:49:52.699Z,3.39
2023-02-14T20:52:20.525Z,3.42
2023-02-14T20:54:48.376Z,3.69
2023-02-14T20:57:16.193Z,3.38
2023-02-14T20:59:45.814Z,3.47
2023-02-14T21:02:13.629Z,3.36
2023-02-14T21:04:41.479Z,3.64
2023-02-14T21:07:11.213Z,3.30
2023-02-14T21:09:39.427Z,3.47
2023-02-14T21:12:07.561Z,3.50
2023-02-14T21:14:35.401Z,3.53
2023-02-14T21:17:05.250Z,3.54
2023-02-14T21:19:33.361Z,3.31
2023-02-14T21:22:01.145Z,3.58
2023-02-14T21:24:29.841Z,3.61
2023-02-14T21:26:57.620Z,3.32
2023-02-14T21:29:25.387Z,3.37
2023-02-14T21:31:53.348Z,3.54
2023-02-14T21:34:21.465Z,3.41
2023-02-14T21:36:49.370Z,3.50
2023-02-14T21:39:17.228Z,3.30
2023-02-14T21:41:45.175Z,3.46
2023-02-14T21:44:32.785Z,3.14
2023-02-14T21:47:00.533Z,3.40
2023-02-14T21:49:46.947Z,3.15
2023-02-14T21:52:14.749Z,3.01
2023-02-14T21:54:42.532Z,3.17
2023-02-14T21:57:10.313Z,3.42
2023-02-14T21:59:39.366Z,3.34
2023-02-14T22:02:07.139Z,3.09
2023-02-14T22:04:36.437Z,3.13
2023-02-14T22:07:04.255Z,3.05
2023-02-14T22:09:32.055Z,3.37
2023-02-14T22:11:59.880Z,3.12
2023-02-14T22:14:30.170Z,3.35
2023-02-14T22:16:57.954Z,3.23
2023-02-14T22:19:25.991Z,3.27
2023-02-14T22:21:53.767Z,3.12
2023-02-14T22:24:21.516Z,3.22
2023-02-14T22:26:49.342Z,3.33
2023-02-14T22:29:17.101Z,3.45
2023-02-14T22:31:45.139Z,3.12
2023-02-14T22:34:13.132Z,3.33
2023-02-14T22:36:40.963Z,3.39
2023-02-14T22:39:08.740Z,3.47
2023-02-14T22:41:38.686Z,3.04
2023-02-14T22:44:06.828Z,3.18
2023-02-14T22:46:34.672Z,3.16
2023-02-14T22:49:02.573Z,3.29
2023-02-14T22:51:30.362Z,3.22
2023-02-14T22:53:58.167Z,3.43
2023-02-14T22:56:26.129Z,3.19
2023-02-14T22:58:54.136Z,3.21
2023-02-14T23:01:21.926Z,3.10
2023-02-14T23:03:49.739Z,3.45
2023-02-14T23:06:17.663Z,3.23
2023-02-14T23:08:45.501Z,3.39
2023-02-14T23:11:13.277Z,3.40
2023-02-14T23:13:59.469Z,3.28
2023-02-14T23:16:45.748Z,3.17
2023-02-14T23:19:31.633Z,3.13
2023-02-14T23:21:59.552Z,2.94
2023-02-14T23:24:27.600Z,2.89
2023-02-14T23:26:55.832Z,2.88
2023-02-14T23:29:23.678Z,3.07
2023-02-14T23:31:51.584Z,3.27
2023-02-14T23:34:19.418Z,3.16
2023-02-14T23:36:47.250Z,3.17
2023-02-14T23:39:14.994Z,3.05
2023-02-14T23:41:48.727Z,3.20
2023-02-14T23:44:16.669Z,3.17
2023-02-14T23:46:44.467Z,3.17
2023-02-14T23:49:12.249Z,3.15
2023-02-14T23:51:40.149Z,3.11
2023-02-14T23:54:07.932Z,3.29
2023-02-14T23:56:35.772Z,3.26
2023-02-14T23:59:03.575Z,3.24
